createdAt,value
2022-12-08T00:01:19.111Z,30.00
2022-12-08T00:03:51.407Z,30.43
2022-12-08T00:06:48.622Z,28.10
2022-12-08T00:09:36.309Z,21.67
2022-12-08T00:12:10.998Z,22.25
2022-12-08T00:14:40.471Z,23.67
2022-12-08T00:17:10.064Z,21.83
2022-12-08T00:19:37.262Z,23.55
2022-12-08T00:22:03.765Z,22.80
2022-12-08T00:24:33.218Z,24.60
2022-12-08T00:26:59.776Z,19.63
2022-12-08T00:29:26.568Z,19.20
2022-12-08T00:31:53.899Z,23.87
2022-12-08T00:34:20.805Z,21.00
2022-12-08T00:36:47.608Z,23.10
2022-12-08T00:39:16.424Z,18.40
2022-12-08T00:42:01.539Z,18.67
2022-12-08T00:44:28.295Z,15.40
2022-12-08T00:46:54.915Z,20.80
2022-12-08T00:49:21.861Z,23.07
2022-12-08T00:51:48.693Z,23.90
2022-12-08T00:54:15.306Z,20.87
2022-12-08T00:56:41.901Z,17.13
2022-12-08T00:59:08.611Z,24.87
2022-12-08T01:01:36.363Z,24.53
2022-12-08T01:04:07.164Z,21.63
2022-12-08T01:06:35.452Z,24.90
2022-12-08T01:09:04.081Z,23.83
2022-12-08T01:11:30.708Z,22.23
2022-12-08T01:13:57.387Z,23.17
2022-12-08T01:16:29.617Z,27.53
2022-12-08T01:18:57.239Z,30.33
2022-12-08T01:21:23.850Z,29.00
2022-12-08T01:23:50.474Z,20.53
2022-12-08T01:26:19.217Z,23.03
2022-12-08T01:28:47.074Z,20.10
2022-12-08T01:31:16.976Z,22.23
2022-12-08T01:33:43.996Z,18.75
2022-12-08T01:36:21.121Z,26.00
2022-12-08T01:38:47.906Z,20.37
2022-12-08T01:41:17.142Z,17.73
2022-12-08T01:44:11.101Z,18.50
2022-12-08T01:46:43.030Z,19.13
2022-12-08T01:49:22.516Z,17.13
2022-12-08T01:52:20.085Z,17.30
2022-12-08T01:54:51.558Z,17.40
2022-12-08T01:57:26.675Z,16.23
2022-12-08T02:00:00.542Z,17.57
2022-12-08T02:02:34.315Z,22.37
2022-12-08T02:05:03.284Z,19.57
2022-12-08T02:07:30.888Z,18.90
2022-12-08T02:09:57.911Z,18.67
2022-12-08T02:12:24.908Z,22.30
2022-12-08T02:14:51.643Z,24.13
2022-12-08T02:17:27.390Z,16.03
2022-12-08T02:20:18.183Z,18.13
2022-12-08T02:23:02.710Z,20.63
2022-12-08T02:25:38.470Z,20.97
2022-12-08T02:28:17.866Z,20.73
2022-12-08T02:31:10.442Z,22.83
2022-12-08T02:34:03.080Z,21.57
2022-12-08T02:36:51.332Z,25.13
2022-12-08T02:39:23.753Z,21.30
2022-12-08T02:45:25.310Z,17.97
2022-12-08T02:47:52.513Z,22.50
2022-12-08T02:50:19.289Z,19.27
2022-12-08T02:52:47.933Z,17.00
2022-12-08T02:55:14.441Z,17.87
2022-12-08T02:58:07.226Z,18.03
2022-12-08T03:01:01.777Z,18.93
2022-12-08T03:03:36.013Z,18.00
2022-12-08T03:06:20.629Z,19.47
2022-12-08T03:08:55.396Z,24.70
2022-12-08T03:11:33.146Z,20.70
2022-12-08T03:14:02.592Z,21.07
2022-12-08T03:16:30.963Z,15.55
2022-12-08T03:19:10.760Z,20.90
2022-12-08T03:21:37.901Z,18.65
2022-12-08T03:24:07.980Z,18.90
2022-12-08T03:26:36.786Z,22.10
2022-12-08T03:29:04.003Z,15.77
2022-12-08T03:31:37.574Z,20.63
2022-12-08T03:34:05.458Z,14.53
2022-12-08T03:36:32.303Z,16.17
2022-12-08T03:38:58.949Z,20.57
2022-12-08T03:41:25.603Z,19.87
2022-12-08T03:43:59.447Z,18.33
2022-12-08T03:48:56.320Z,16.88
2022-12-08T03:51:23.300Z,14.90
2022-12-08T03:53:50.269Z,15.27
2022-12-08T03:56:28.705Z,18.07
2022-12-08T03:58:55.664Z,15.20
2022-12-08T04:01:22.786Z,22.00
2022-12-08T04:03:49.556Z,30.87
2022-12-08T04:06:17.121Z,28.23
2022-12-08T04:08:44.047Z,17.73
2022-12-08T04:11:11.185Z,15.33
2022-12-08T04:13:40.137Z,15.50
2022-12-08T04:16:07.818Z,17.20
2022-12-08T04:18:35.553Z,17.07
2022-12-08T04:21:02.713Z,15.17
2022-12-08T04:23:29.286Z,14.70
2022-12-08T04:25:55.853Z,14.37
2022-12-08T04:28:22.505Z,16.67
2022-12-08T04:30:49.925Z,20.87
2022-12-08T04:33:17.117Z,24.13
2022-12-08T04:35:43.916Z,20.43
2022-12-08T04:38:10.673Z,20.70
2022-12-08T04:40:37.315Z,20.87
2022-12-08T04:43:04.296Z,17.17
2022-12-08T04:45:31.319Z,16.63
2022-12-08T04:47:59.543Z,19.57
2022-12-08T04:50:26.462Z,25.07
2022-12-08T04:52:53.637Z,22.97
2022-12-08T04:55:20.405Z,25.77
2022-12-08T04:58:01.113Z,22.50
2022-12-08T05:00:27.864Z,24.73
2022-12-08T05:02:54.666Z,22.00
2022-12-08T05:05:21.406Z,15.43
2022-12-08T05:07:48.034Z,21.33
2022-12-08T05:10:14.669Z,18.63
2022-12-08T05:12:41.281Z,27.33
2022-12-08T05:15:08.380Z,32.90
2022-12-08T05:17:34.907Z,66.80
2022-12-08T05:20:02.401Z,54.83
2022-12-08T05:22:29.223Z,44.73
2022-12-08T05:24:55.840Z,47.00
2022-12-08T05:27:22.390Z,32.03
2022-12-08T05:29:50.260Z,30.23
2022-12-08T05:32:16.998Z,29.77
2022-12-08T05:34:43.664Z,34.97
2022-12-08T05:37:10.269Z,26.53
2022-12-08T05:39:37.021Z,27.57
2022-12-08T05:42:03.829Z,25.73
2022-12-08T05:44:30.385Z,36.97
2022-12-08T05:46:57.081Z,33.03
2022-12-08T05:49:23.662Z,53.73
2022-12-08T05:51:50.318Z,44.57
2022-12-08T05:54:17.011Z,32.83
2022-12-08T05:56:43.860Z,46.83
2022-12-08T05:59:10.583Z,41.07
2022-12-08T06:01:37.284Z,36.70
2022-12-08T06:04:04.525Z,37.83
2022-12-08T06:06:32.153Z,37.73
2022-12-08T06:08:58.826Z,43.23
2022-12-08T06:11:30.885Z,51.97
2022-12-08T06:13:58.122Z,40.73
2022-12-08T06:16:26.445Z,36.03
2022-12-08T06:18:53.169Z,31.37
2022-12-08T06:21:20.864Z,36.80
2022-12-08T06:23:52.586Z,56.07
2022-12-08T06:26:19.950Z,55.97
2022-12-08T06:28:46.618Z,45.93
2022-12-08T06:31:17.548Z,49.37
2022-12-08T06:33:44.374Z,49.77
2022-12-08T06:36:13.397Z,44.60
2022-12-08T06:38:43.268Z,54.60
2022-12-08T06:41:11.309Z,57.60
2022-12-08T06:43:38.391Z,66.13
2022-12-08T06:46:10.840Z,46.13
2022-12-08T06:48:37.566Z,47.47
2022-12-08T06:51:13.572Z,40.90
2022-12-08T06:53:40.778Z,40.73
2022-12-08T06:56:07.887Z,43.30
2022-12-08T06:58:34.877Z,42.60
2022-12-08T07:01:10.598Z,29.33
2022-12-08T07:03:38.813Z,28.57
2022-12-08T07:06:06.320Z,30.37
2022-12-08T07:08:34.125Z,32.90
2022-12-08T07:11:06.853Z,26.93
2022-12-08T07:13:33.454Z,36.47
2022-12-08T07:16:00.117Z,38.43
2022-12-08T07:18:26.721Z,35.43
2022-12-08T07:20:53.236Z,26.33
2022-12-08T07:23:19.810Z,25.27
2022-12-08T07:25:47.342Z,18.37
2022-12-08T07:28:14.888Z,23.13
2022-12-08T07:30:41.544Z,24.23
2022-12-08T07:33:08.256Z,36.60
2022-12-08T07:35:35.382Z,33.67
2022-12-08T07:38:02.591Z,26.47
2022-12-08T07:40:29.402Z,32.37
2022-12-08T07:42:55.983Z,35.43
2022-12-08T07:45:28.214Z,39.43
2022-12-08T07:47:58.044Z,33.20
2022-12-08T07:50:24.827Z,36.33
2022-12-08T07:52:51.391Z,31.73
2022-12-08T07:55:17.951Z,29.47
2022-12-08T07:57:44.583Z,20.17
2022-12-08T08:00:11.734Z,29.13
2022-12-08T08:02:38.674Z,33.37
2022-12-08T08:05:06.539Z,24.10
2022-12-08T08:07:34.661Z,18.57
2022-12-08T08:10:01.332Z,24.37
2022-12-08T08:12:32.303Z,24.33
2022-12-08T08:15:00.875Z,17.37
2022-12-08T08:17:28.713Z,20.60
2022-12-08T08:19:55.501Z,24.60
2022-12-08T08:22:22.042Z,23.27
2022-12-08T08:24:48.725Z,19.63
2022-12-08T08:27:15.373Z,22.27
2022-12-08T08:29:42.054Z,23.27
2022-12-08T08:32:08.760Z,23.13
2022-12-08T08:34:35.368Z,21.20
2022-12-08T08:37:01.963Z,24.83
2022-12-08T08:39:30.229Z,27.00
2022-12-08T08:41:56.797Z,45.20
2022-12-08T08:44:23.574Z,46.63
2022-12-08T08:46:51.647Z,38.87
2022-12-08T08:49:18.837Z,42.37
2022-12-08T08:51:46.036Z,41.13
2022-12-08T08:54:12.736Z,32.20
2022-12-08T08:56:39.324Z,30.83
2022-12-08T08:59:05.982Z,34.37
2022-12-08T09:01:32.665Z,27.10
2022-12-08T09:03:59.555Z,30.20
2022-12-08T09:06:28.294Z,26.77
2022-12-08T09:08:55.166Z,26.97
2022-12-08T09:11:23.561Z,23.83
2022-12-08T09:13:51.712Z,27.07
2022-12-08T09:16:20.194Z,29.40
2022-12-08T09:18:48.329Z,27.77
2022-12-08T09:21:16.849Z,23.03
2022-12-08T09:23:43.999Z,28.60
2022-12-08T09:26:10.829Z,26.33
2022-12-08T09:28:37.975Z,21.47
2022-12-08T09:31:05.139Z,24.43
2022-12-08T09:33:31.950Z,22.70
2022-12-08T09:36:03.610Z,25.37
2022-12-08T09:38:30.431Z,19.90
2022-12-08T09:40:57.555Z,16.17
2022-12-08T09:43:45.500Z,18.97
2022-12-08T09:46:17.574Z,20.60
2022-12-08T09:48:55.762Z,19.87
2022-12-08T09:51:35.429Z,17.83
2022-12-08T09:54:12.778Z,18.50
2022-12-08T09:56:39.972Z,22.83
2022-12-08T09:59:35.075Z,14.80
2022-12-08T10:02:03.030Z,16.63
2022-12-08T10:04:36.474Z,15.47
2022-12-08T10:07:04.721Z,15.43
2022-12-08T10:09:40.389Z,15.90
2022-12-08T10:12:26.190Z,17.67
2022-12-08T10:15:10.162Z,16.47
2022-12-08T10:17:48.945Z,15.70
2022-12-08T10:20:20.721Z,16.50
2022-12-08T10:22:56.309Z,16.63
2022-12-08T10:25:35.090Z,14.03
2022-12-08T10:28:01.682Z,15.57
2022-12-08T10:30:28.336Z,14.67
2022-12-08T10:32:55.142Z,14.93
2022-12-08T10:35:23.858Z,16.57
2022-12-08T10:38:00.667Z,14.03
2022-12-08T10:40:29.586Z,12.50
2022-12-08T10:42:59.166Z,16.50
2022-12-08T10:45:33.338Z,14.20
2022-12-08T10:48:03.506Z,15.27
2022-12-08T10:51:00.312Z,14.00
2022-12-08T10:53:32.382Z,14.13
2022-12-08T10:56:02.033Z,15.53
2022-12-08T10:58:40.893Z,13.00
2022-12-08T11:01:18.871Z,13.00
2022-12-08T11:03:57.207Z,13.77
2022-12-08T11:06:36.765Z,14.67
2022-12-08T11:09:15.664Z,8.88
2022-12-08T11:11:48.136Z,11.52
2022-12-08T11:14:35.408Z,10.80
2022-12-08T11:17:26.347Z,12.43
2022-12-08T11:19:59.890Z,9.33
2022-12-08T11:22:29.398Z,15.80
2022-12-08T11:25:02.858Z,18.15
2022-12-08T11:27:30.030Z,16.00
2022-12-08T11:29:57.011Z,18.23
2022-12-08T11:32:23.907Z,13.67
2022-12-08T11:35:02.571Z,15.97
2022-12-08T11:37:35.426Z,14.83
2022-12-08T11:40:07.467Z,14.10
2022-12-08T11:42:45.659Z,15.07
2022-12-08T11:45:19.418Z,14.70
2022-12-08T11:47:56.364Z,14.10
2022-12-08T11:50:29.723Z,12.20
2022-12-08T11:52:58.249Z,13.27
2022-12-08T11:55:37.060Z,14.57
2022-12-08T11:58:14.930Z,12.97
2022-12-08T12:00:41.602Z,11.57
2022-12-08T12:03:29.767Z,13.77
2022-12-08T12:06:38.134Z,11.13
2022-12-08T12:09:53.436Z,9.73
2022-12-08T12:12:44.931Z,9.27
2022-12-08T12:15:12.566Z,18.33
2022-12-08T12:17:49.176Z,9.67
2022-12-08T12:20:26.019Z,10.93
2022-12-08T12:23:01.034Z,10.40
2022-12-08T12:25:28.787Z,10.07
2022-12-08T12:28:01.547Z,12.13
2022-12-08T12:30:32.963Z,16.03
2022-12-08T12:33:02.332Z,14.57
2022-12-08T12:35:41.437Z,12.05
2022-12-08T12:38:43.087Z,12.45
2022-12-08T12:41:16.362Z,11.10
2022-12-08T12:44:07.855Z,12.10
2022-12-08T12:46:40.194Z,10.35
2022-12-08T12:49:40.935Z,11.70
2022-12-08T12:52:10.549Z,10.63
2022-12-08T12:54:45.832Z,9.52
2022-12-08T12:57:12.294Z,14.77
2022-12-08T13:00:09.485Z,12.10
2022-12-08T13:02:36.308Z,11.10
2022-12-08T13:05:24.260Z,12.43
2022-12-08T13:08:00.709Z,14.20
2022-12-08T13:10:37.268Z,14.87
2022-12-08T13:13:09.663Z,13.73
2022-12-08T13:15:56.346Z,18.70
2022-12-08T13:18:45.117Z,12.03
2022-12-08T13:21:18.775Z,16.37
2022-12-08T13:23:47.290Z,20.00
2022-12-08T13:26:25.853Z,20.40
2022-12-08T13:29:01.819Z,17.27
2022-12-08T13:31:48.289Z,16.67
2022-12-08T13:34:41.669Z,20.83
2022-12-08T13:37:37.073Z,39.67
2022-12-08T13:40:24.045Z,34.78
2022-12-08T13:43:05.071Z,39.77
2022-12-08T13:46:26.261Z,34.10
2022-12-08T13:49:59.170Z,26.88
2022-12-08T13:57:32.931Z,17.43
2022-12-08T14:00:02.762Z,14.00
2022-12-08T14:02:48.195Z,18.30
2022-12-08T14:05:19.008Z,24.23
2022-12-08T14:07:51.279Z,22.03
2022-12-08T14:10:27.760Z,25.63
2022-12-08T14:13:03.938Z,25.77
2022-12-08T14:15:37.746Z,29.97
2022-12-08T14:18:06.163Z,32.83
2022-12-08T14:20:57.958Z,32.40
2022-12-08T14:23:22.109Z,24.90
2022-12-08T14:25:48.918Z,30.57
2022-12-08T14:28:15.597Z,34.07
2022-12-08T14:30:42.561Z,57.20
2022-12-08T14:33:15.288Z,63.63
2022-12-08T14:35:42.008Z,41.97
2022-12-08T14:38:20.834Z,34.70
2022-12-08T14:40:59.419Z,42.83
2022-12-08T14:43:28.138Z,42.30
2022-12-08T14:46:00.239Z,35.70
2022-12-08T14:48:36.441Z,31.80
2022-12-08T14:51:21.188Z,29.37
2022-12-08T14:53:54.716Z,28.33
2022-12-08T14:56:37.356Z,26.07
2022-12-08T14:59:12.213Z,19.43
2022-12-08T15:01:39.073Z,17.73
2022-12-08T15:04:08.615Z,14.80
2022-12-08T15:06:36.374Z,18.50
2022-12-08T15:09:17.219Z,18.17
2022-12-08T15:11:44.549Z,16.97
2022-12-08T15:14:35.603Z,17.87
2022-12-08T15:17:02.180Z,18.00
2022-12-08T15:19:34.296Z,16.37
2022-12-08T15:22:20.814Z,17.87
2022-12-08T15:24:47.487Z,18.63
2022-12-08T15:29:53.801Z,26.13
2022-12-08T15:32:22.795Z,21.53
2022-12-08T15:34:50.279Z,18.13
2022-12-08T15:37:23.382Z,26.03
2022-12-08T15:39:50.268Z,26.27
2022-12-08T15:42:17.076Z,24.37
2022-12-08T15:44:47.167Z,23.23
2022-12-08T15:49:49.876Z,29.67
2022-12-08T15:52:22.879Z,25.60
2022-12-08T15:54:50.413Z,23.57
2022-12-08T15:57:44.092Z,25.43
2022-12-08T16:09:19.417Z,21.03
2022-12-08T16:12:10.160Z,22.70
2022-12-08T16:17:27.302Z,20.60
2022-12-08T16:19:54.834Z,20.67
2022-12-08T16:25:20.606Z,24.27
2022-12-08T16:30:37.240Z,17.23
2022-12-08T16:33:04.026Z,23.23
2022-12-08T16:35:30.990Z,23.40
2022-12-08T16:37:58.005Z,26.03
2022-12-08T16:40:24.691Z,23.77
2022-12-08T16:42:51.337Z,24.13
2022-12-08T16:45:44.954Z,25.73
2022-12-08T16:48:14.646Z,26.47
2022-12-08T16:50:44.771Z,27.70
2022-12-08T16:55:39.756Z,34.83
2022-12-08T16:58:06.761Z,35.10
2022-12-08T17:00:37.432Z,40.00
2022-12-08T17:03:08.431Z,35.20
2022-12-08T17:05:35.701Z,34.63
2022-12-08T17:08:02.362Z,40.53
2022-12-08T17:10:32.138Z,40.27
2022-12-08T17:13:00.831Z,38.45
2022-12-08T17:15:27.847Z,38.37
2022-12-08T17:17:55.444Z,37.23
2022-12-08T17:20:27.790Z,38.37
2022-12-08T17:22:56.359Z,37.97
2022-12-08T17:25:23.443Z,35.23
2022-12-08T17:27:50.103Z,35.77
2022-12-08T17:30:17.821Z,36.30
2022-12-08T17:32:44.888Z,33.87
2022-12-08T17:35:14.423Z,31.50
2022-12-08T17:37:41.297Z,39.95
2022-12-08T17:40:08.906Z,31.07
2022-12-08T17:42:35.775Z,34.30
2022-12-08T17:45:02.504Z,35.30
2022-12-08T17:47:29.428Z,35.13
2022-12-08T17:49:56.423Z,36.77
2022-12-08T17:52:39.176Z,35.43
2022-12-08T17:55:06.371Z,33.20
2022-12-08T17:57:33.037Z,34.63
2022-12-08T17:59:59.719Z,35.07
2022-12-08T18:02:26.467Z,41.73
2022-12-08T18:04:53.188Z,36.27
2022-12-08T18:07:20.835Z,36.03
2022-12-08T18:09:47.533Z,39.00
2022-12-08T18:12:17.004Z,41.07
2022-12-08T18:14:48.866Z,38.33
2022-12-08T18:17:15.521Z,40.00
2022-12-08T18:19:42.179Z,40.90
2022-12-08T18:22:09.281Z,35.80
2022-12-08T18:24:35.921Z,42.60
2022-12-08T18:27:02.644Z,50.43
2022-12-08T18:29:29.266Z,47.00
2022-12-08T18:31:55.962Z,45.93
2022-12-08T18:34:31.189Z,45.30
2022-12-08T18:37:13.032Z,51.10
2022-12-08T18:39:45.168Z,60.30
2022-12-08T18:42:23.957Z,61.17
2022-12-08T18:44:58.920Z,70.07
2022-12-08T18:47:27.186Z,56.87
2022-12-08T18:49:54.451Z,62.13
2022-12-08T18:52:28.147Z,64.83
2022-12-08T18:55:07.796Z,61.33
2022-12-08T18:57:37.741Z,55.93
2022-12-08T19:00:07.873Z,39.95
2022-12-08T19:02:36.186Z,40.17
2022-12-08T19:05:05.511Z,51.80
2022-12-08T19:07:33.239Z,51.78
2022-12-08T19:12:41.634Z,44.30
2022-12-08T19:15:11.118Z,43.03
2022-12-08T19:18:38.796Z,40.40
2022-12-08T19:27:18.295Z,38.97
2022-12-08T19:30:06.706Z,40.93
2022-12-08T19:32:35.217Z,44.57
2022-12-08T19:35:07.530Z,39.17
2022-12-08T19:37:35.571Z,38.30
2022-12-08T19:40:21.869Z,36.37
2022-12-08T19:43:07.068Z,39.73
2022-12-08T19:45:35.694Z,34.20
2022-12-08T19:48:05.003Z,38.03
2022-12-08T19:50:47.553Z,39.30
2022-12-08T19:55:56.560Z,42.27
2022-12-08T19:58:23.409Z,41.50
2022-12-08T20:00:50.367Z,44.23
2022-12-08T20:03:19.671Z,44.37
2022-12-08T20:05:49.232Z,38.28
2022-12-08T20:08:28.571Z,43.22
2022-12-08T20:10:59.182Z,39.40
2022-12-08T20:13:44.143Z,40.20
2022-12-08T20:16:29.866Z,44.27
2022-12-08T20:21:55.701Z,45.77
2022-12-08T20:27:25.527Z,42.10
2022-12-08T20:29:52.939Z,40.83
2022-12-08T20:32:19.651Z,42.10
2022-12-08T20:34:46.310Z,42.43
2022-12-08T20:37:12.911Z,43.50
2022-12-08T20:39:39.576Z,45.47
2022-12-08T20:42:06.343Z,44.17
2022-12-08T20:44:33.330Z,48.20
2022-12-08T20:47:00.047Z,45.23
2022-12-08T20:49:34.253Z,42.83
2022-12-08T20:52:05.275Z,43.40
2022-12-08T20:54:46.770Z,42.63
2022-12-08T20:57:16.553Z,42.27
2022-12-08T21:20:08.705Z,72.33
2022-12-08T21:22:35.602Z,69.43
2022-12-08T21:25:02.326Z,73.73
2022-12-08T21:27:29.014Z,109.57
2022-12-08T21:29:56.583Z,91.53
2022-12-08T21:32:29.933Z,86.10
2022-12-08T21:34:58.311Z,101.87
2022-12-08T21:37:25.021Z,120.50
2022-12-08T21:39:51.859Z,136.30
2022-12-08T21:42:37.110Z,117.90
2022-12-08T21:45:04.268Z,276.63
2022-12-08T21:47:31.206Z,256.30
2022-12-08T21:49:58.116Z,170.60
2022-12-08T21:52:24.805Z,110.40
2022-12-08T21:54:51.525Z,110.00
2022-12-08T21:57:18.360Z,202.40
2022-12-08T21:59:45.040Z,208.47
2022-12-08T22:02:16.644Z,185.30
2022-12-08T22:04:48.081Z,174.93
2022-12-08T22:07:14.727Z,139.53
2022-12-08T22:09:41.688Z,90.43
2022-12-08T22:12:11.874Z,55.50
2022-12-08T22:17:07.512Z,48.10
2022-12-08T22:19:34.814Z,41.23
2022-12-08T22:22:01.876Z,48.70
2022-12-08T22:24:31.859Z,50.23
2022-12-08T22:26:58.764Z,60.15
2022-12-08T22:29:25.731Z,99.93
2022-12-08T22:31:55.421Z,145.23
2022-12-08T22:34:22.133Z,159.70
2022-12-08T22:36:49.216Z,56.17
2022-12-08T22:39:15.948Z,176.80
2022-12-08T22:41:42.653Z,146.13
2022-12-08T22:44:09.604Z,162.37
2022-12-08T22:46:36.313Z,104.87
2022-12-08T22:49:03.185Z,118.80
2022-12-08T22:51:30.014Z,132.50
2022-12-08T22:53:56.832Z,88.30
2022-12-08T22:56:23.735Z,111.00
2022-12-08T22:58:52.057Z,85.80
2022-12-08T23:01:26.773Z,61.57
2022-12-08T23:03:53.846Z,62.43
2022-12-08T23:06:24.029Z,62.80
2022-12-08T23:08:51.289Z,60.80
2022-12-08T23:11:19.114Z,47.70
2022-12-08T23:13:46.251Z,49.30
2022-12-08T23:16:13.296Z,44.37
2022-12-08T23:18:41.713Z,54.57
2022-12-08T23:21:12.022Z,47.63
2022-12-08T23:23:38.722Z,51.97
2022-12-08T23:26:13.268Z,59.10
2022-12-08T23:28:39.886Z,67.23
2022-12-08T23:31:09.504Z,65.67
2022-12-08T23:33:36.446Z,83.50
2022-12-08T23:36:03.164Z,82.00
2022-12-08T23:38:29.903Z,51.53
2022-12-08T23:41:00.623Z,64.27
2022-12-08T23:43:27.210Z,50.00
2022-12-08T23:45:53.944Z,51.43
2022-12-08T23:48:22.016Z,65.17
2022-12-08T23:50:49.001Z,60.80
2022-12-08T23:53:16.495Z,56.73
2022-12-08T23:55:43.154Z,50.87
2022-12-08T23:58:09.899Z,52.97
